メインページ
METAR-TAF:

METAR-TAF

空港 :

Aghajari, イラン

緯度: 30-46N, 経度: 049-40E, 海抜: 29m

現時点の気象観測

当レポートは1時間18分前の17:00(UTC)に作成
北東の風 4kt
気温 18°C
湿度 73%
気圧 1017 hPa
視程: 8000m
高度3000ftの雲は散在している, 積乱雲.
高度3500ftの千切れ雲あり
激しい雷雨, 雨

METAR: OIAG 171700Z 05004KT 8000 TSRA SCT030CB BKN035 18/13 Q1017

時間: 21:48 (18:18 UTC)


TAF: 見つかりません

4,000以上の空港の気象観測と天気予報(METAR報とTAF報)

利用可能な観測所は地図上に黄色い丸と赤い丸で示す。

丸の上にカーソルを重ねると観測所名を参照できる。

次にクリックすると気象観測と天気予報を参照できる。

マップの切り替え:黒色「×」印の緑ボタンをクリックして拡大、「-」印の緑ボタンをクリックして縮小、緑色の三角印をクリックして隣りの地図に切り替え


METAR-TAF: